sensor_id;sensor_type;location;lat;lon;timestamp;P1;durP1;ratioP1;P2;durP2;ratioP2
65764;SDS011;52915;53.718;19.946;2023-04-23T00:04:36;23.20;;;12.30;;
65764;SDS011;52915;53.718;19.946;2023-04-23T00:09:43;21.90;;;11.30;;
65764;SDS011;52915;53.718;19.946;2023-04-23T00:14:50;20.60;;;10.90;;
65764;SDS011;52915;53.718;19.946;2023-04-23T00:19:54;21.20;;;10.80;;
65764;SDS011;52915;53.718;19.946;2023-04-23T00:24:57;21.50;;;9.80;;
65764;SDS011;52915;53.718;19.946;2023-04-23T00:30:03;21.50;;;10.40;;
65764;SDS011;52915;53.718;19.946;2023-04-23T00:35:09;18.20;;;9.70;;
65764;SDS011;52915;53.718;19.946;2023-04-23T00:40:13;16.10;;;9.10;;
65764;SDS011;52915;53.718;19.946;2023-04-23T00:45:20;14.50;;;8.60;;
65764;SDS011;52915;53.718;19.946;2023-04-23T00:50:25;16.20;;;8.70;;
65764;SDS011;52915;53.718;19.946;2023-04-23T00:55:28;17.90;;;9.70;;
65764;SDS011;52915;53.718;19.946;2023-04-23T01:00:38;17.90;;;9.40;;
65764;SDS011;52915;53.718;19.946;2023-04-23T01:05:49;14.70;;;8.10;;
65764;SDS011;52915;53.718;19.946;2023-04-23T01:10:57;19.60;;;8.10;;
65764;SDS011;52915;53.718;19.946;2023-04-23T01:16:01;14.80;;;8.90;;
65764;SDS011;52915;53.718;19.946;2023-04-23T01:21:05;16.20;;;8.20;;
65764;SDS011;52915;53.718;19.946;2023-04-23T01:26:11;19.60;;;8.00;;
65764;SDS011;52915;53.718;19.946;2023-04-23T01:31:18;13.00;;;7.90;;
65764;SDS011;52915;53.718;19.946;2023-04-23T01:36:24;13.30;;;7.60;;
65764;SDS011;52915;53.718;19.946;2023-04-23T01:41:31;15.50;;;8.10;;
65764;SDS011;52915;53.718;19.946;2023-04-23T01:46:36;15.40;;;7.20;;
65764;SDS011;52915;53.718;19.946;2023-04-23T01:51:41;17.70;;;8.50;;
65764;SDS011;52915;53.718;19.946;2023-04-23T01:56:46;18.40;;;8.30;;
65764;SDS011;52915;53.718;19.946;2023-04-23T02:01:51;10.70;;;7.80;;
65764;SDS011;52915;53.718;19.946;2023-04-23T02:07:01;13.80;;;7.30;;
65764;SDS011;52915;53.718;19.946;2023-04-23T02:12:11;15.30;;;7.70;;
65764;SDS011;52915;53.718;19.946;2023-04-23T02:22:29;16.70;;;7.60;;
65764;SDS011;52915;53.718;19.946;2023-04-23T02:27:37;11.30;;;7.20;;
65764;SDS011;52915;53.718;19.946;2023-04-23T02:32:43;17.60;;;7.70;;
65764;SDS011;52915;53.718;19.946;2023-04-23T02:37:47;15.90;;;8.30;;
65764;SDS011;52915;53.718;19.946;2023-04-23T02:42:52;12.20;;;7.00;;
65764;SDS011;52915;53.718;19.946;2023-04-23T02:47:56;10.00;;;6.80;;
65764;SDS011;52915;53.718;19.946;2023-04-23T02:53:00;12.20;;;7.20;;
65764;SDS011;52915;53.718;19.946;2023-04-23T02:58:07;16.50;;;7.30;;
65764;SDS011;52915;53.718;19.946;2023-04-23T03:03:10;12.30;;;6.30;;
65764;SDS011;52915;53.718;19.946;2023-04-23T03:08:17;13.00;;;6.90;;
65764;SDS011;52915;53.718;19.946;2023-04-23T03:13:21;9.10;;;6.20;;
65764;SDS011;52915;53.718;19.946;2023-04-23T03:18:29;16.80;;;6.90;;
65764;SDS011;52915;53.718;19.946;2023-04-23T03:23:34;14.00;;;7.20;;
65764;SDS011;52915;53.718;19.946;2023-04-23T03:28:38;8.60;;;6.30;;
65764;SDS011;52915;53.718;19.946;2023-04-23T03:33:42;11.50;;;7.30;;
65764;SDS011;52915;53.718;19.946;2023-04-23T03:38:46;14.70;;;6.70;;
65764;SDS011;52915;53.718;19.946;2023-04-23T03:43:49;10.90;;;6.80;;
65764;SDS011;52915;53.718;19.946;2023-04-23T03:48:53;14.50;;;6.50;;
65764;SDS011;52915;53.718;19.946;2023-04-23T03:53:57;11.70;;;6.40;;
65764;SDS011;52915;53.718;19.946;2023-04-23T03:59:01;13.20;;;6.50;;
65764;SDS011;52915;53.718;19.946;2023-04-23T04:04:06;8.60;;;4.90;;
65764;SDS011;52915;53.718;19.946;2023-04-23T04:09:11;11.90;;;6.50;;
65764;SDS011;52915;53.718;19.946;2023-04-23T04:14:16;7.90;;;6.10;;
65764;SDS011;52915;53.718;19.946;2023-04-23T04:19:20;9.40;;;6.20;;
65764;SDS011;52915;53.718;19.946;2023-04-23T04:24:24;14.40;;;6.70;;
65764;SDS011;52915;53.718;19.946;2023-04-23T04:29:29;5.50;;;4.80;;
65764;SDS011;52915;53.718;19.946;2023-04-23T04:34:33;10.20;;;6.00;;
65764;SDS011;52915;53.718;19.946;2023-04-23T04:39:40;10.40;;;6.50;;
65764;SDS011;52915;53.718;19.946;2023-04-23T04:44:46;9.40;;;6.10;;
65764;SDS011;52915;53.718;19.946;2023-04-23T04:49:55;11.80;;;6.90;;
65764;SDS011;52915;53.718;19.946;2023-04-23T04:55:01;10.60;;;5.10;;
65764;SDS011;52915;53.718;19.946;2023-04-23T05:00:35;9.60;;;6.80;;
65764;SDS011;52915;53.718;19.946;2023-04-23T05:05:39;11.60;;;5.70;;
65764;SDS011;52915;53.718;19.946;2023-04-23T05:11:07;8.90;;;5.90;;
65764;SDS011;52915;53.718;19.946;2023-04-23T05:16:37;8.90;;;6.50;;
65764;SDS011;52915;53.718;19.946;2023-04-23T05:21:41;14.20;;;6.60;;
65764;SDS011;52915;53.718;19.946;2023-04-23T05:26:46;14.70;;;7.70;;
65764;SDS011;52915;53.718;19.946;2023-04-23T05:31:54;12.80;;;6.90;;
65764;SDS011;52915;53.718;19.946;2023-04-23T05:37:04;12.10;;;6.30;;
65764;SDS011;52915;53.718;19.946;2023-04-23T05:42:08;9.90;;;6.60;;
65764;SDS011;52915;53.718;19.946;2023-04-23T05:47:14;14.10;;;7.80;;
65764;SDS011;52915;53.718;19.946;2023-04-23T05:52:18;11.10;;;6.80;;
65764;SDS011;52915;53.718;19.946;2023-04-23T05:57:22;9.70;;;6.60;;
65764;SDS011;52915;53.718;19.946;2023-04-23T06:02:27;9.50;;;6.60;;
65764;SDS011;52915;53.718;19.946;2023-04-23T06:13:53;9.70;;;6.80;;
65764;SDS011;52915;53.718;19.946;2023-04-23T06:32:39;9.80;;;7.10;;
65764;SDS011;52915;53.718;19.946;2023-04-23T06:43:38;12.20;;;7.00;;
65764;SDS011;52915;53.718;19.946;2023-04-23T06:48:48;14.00;;;6.40;;
65764;SDS011;52915;53.718;19.946;2023-04-23T07:19:11;5.90;;;4.40;;
65764;SDS011;52915;53.718;19.946;2023-04-23T07:30:15;6.40;;;4.90;;
65764;SDS011;52915;53.718;19.946;2023-04-23T07:41:43;7.50;;;5.90;;
65764;SDS011;52915;53.718;19.946;2023-04-23T07:46:57;5.90;;;4.10;;
65764;SDS011;52915;53.718;19.946;2023-04-23T07:52:00;8.20;;;4.80;;
65764;SDS011;52915;53.718;19.946;2023-04-23T08:42:56;9.10;;;4.70;;
65764;SDS011;52915;53.718;19.946;2023-04-23T08:59:05;6.10;;;4.80;;
65764;SDS011;52915;53.718;19.946;2023-04-23T09:10:08;6.30;;;4.40;;
65764;SDS011;52915;53.718;19.946;2023-04-23T09:15:16;6.10;;;5.10;;
65764;SDS011;52915;53.718;19.946;2023-04-23T09:20:20;7.10;;;4.20;;
65764;SDS011;52915;53.718;19.946;2023-04-23T09:25:49;4.50;;;3.40;;
65764;SDS011;52915;53.718;19.946;2023-04-23T09:51:55;5.90;;;4.90;;
65764;SDS011;52915;53.718;19.946;2023-04-23T09:57:04;4.90;;;3.20;;
65764;SDS011;52915;53.718;19.946;2023-04-23T10:02:46;4.30;;;3.90;;
65764;SDS011;52915;53.718;19.946;2023-04-23T10:07:55;5.70;;;3.70;;
65764;SDS011;52915;53.718;19.946;2023-04-23T10:27:10;6.70;;;4.70;;
65764;SDS011;52915;53.718;19.946;2023-04-23T10:32:36;6.10;;;4.20;;
65764;SDS011;52915;53.718;19.946;2023-04-23T10:44:12;5.40;;;4.90;;
65764;SDS011;52915;53.718;19.946;2023-04-23T10:56:16;59.30;;;18.20;;
65764;SDS011;52915;53.718;19.946;2023-04-23T11:01:29;6.50;;;4.40;;
65764;SDS011;52915;53.718;19.946;2023-04-23T11:11:53;6.60;;;4.30;;
65764;SDS011;52915;53.718;19.946;2023-04-23T11:16:58;4.80;;;4.20;;
65764;SDS011;52915;53.718;19.946;2023-04-23T11:22:04;5.70;;;4.70;;
65764;SDS011;52915;53.718;19.946;2023-04-23T11:59:03;22.90;;;12.50;;
65764;SDS011;52915;53.718;19.946;2023-04-23T12:27:02;7.60;;;5.20;;
65764;SDS011;52915;53.718;19.946;2023-04-23T12:32:10;7.80;;;4.80;;
65764;SDS011;52915;53.718;19.946;2023-04-23T12:43:58;5.30;;;4.10;;
65764;SDS011;52915;53.718;19.946;2023-04-23T12:49:02;7.90;;;5.70;;
65764;SDS011;52915;53.718;19.946;2023-04-23T13:06:59;9.20;;;4.40;;
65764;SDS011;52915;53.718;19.946;2023-04-23T13:18:47;7.50;;;4.60;;
65764;SDS011;52915;53.718;19.946;2023-04-23T13:23:55;6.90;;;3.40;;
65764;SDS011;52915;53.718;19.946;2023-04-23T13:29:00;7.30;;;4.10;;
65764;SDS011;52915;53.718;19.946;2023-04-23T13:40:35;4.50;;;3.80;;
65764;SDS011;52915;53.718;19.946;2023-04-23T14:06:52;6.70;;;5.00;;
65764;SDS011;52915;53.718;19.946;2023-04-23T14:11:56;6.80;;;4.70;;
65764;SDS011;52915;53.718;19.946;2023-04-23T14:38:04;5.00;;;4.10;;
65764;SDS011;52915;53.718;19.946;2023-04-23T14:48:06;6.60;;;4.80;;
65764;SDS011;52915;53.718;19.946;2023-04-23T14:53:10;7.10;;;3.50;;
65764;SDS011;52915;53.718;19.946;2023-04-23T14:58:24;11.10;;;3.80;;
65764;SDS011;52915;53.718;19.946;2023-04-23T15:03:28;5.70;;;3.90;;
65764;SDS011;52915;53.718;19.946;2023-04-23T15:08:38;5.00;;;4.50;;
65764;SDS011;52915;53.718;19.946;2023-04-23T15:20:17;5.00;;;3.80;;
65764;SDS011;52915;53.718;19.946;2023-04-23T15:25:21;8.50;;;3.80;;
65764;SDS011;52915;53.718;19.946;2023-04-23T15:37:30;12.70;;;3.90;;
65764;SDS011;52915;53.718;19.946;2023-04-23T15:42:34;13.10;;;4.40;;
65764;SDS011;52915;53.718;19.946;2023-04-23T15:47:39;4.90;;;3.40;;
65764;SDS011;52915;53.718;19.946;2023-04-23T15:53:10;4.20;;;3.80;;
65764;SDS011;52915;53.718;19.946;2023-04-23T15:58:14;6.00;;;4.10;;
65764;SDS011;52915;53.718;19.946;2023-04-23T16:09:14;4.80;;;4.10;;
65764;SDS011;52915;53.718;19.946;2023-04-23T16:14:18;5.90;;;3.80;;
65764;SDS011;52915;53.718;19.946;2023-04-23T16:19:23;9.20;;;4.50;;
65764;SDS011;52915;53.718;19.946;2023-04-23T16:24:27;8.50;;;5.00;;
65764;SDS011;52915;53.718;19.946;2023-04-23T16:29:31;13.50;;;5.80;;
65764;SDS011;52915;53.718;19.946;2023-04-23T16:40:30;5.60;;;3.00;;
65764;SDS011;52915;53.718;19.946;2023-04-23T16:45:34;7.20;;;4.80;;
65764;SDS011;52915;53.718;19.946;2023-04-23T16:50:42;12.10;;;5.70;;
65764;SDS011;52915;53.718;19.946;2023-04-23T17:01:41;5.30;;;4.90;;
65764;SDS011;52915;53.718;19.946;2023-04-23T17:06:54;7.20;;;4.60;;
65764;SDS011;52915;53.718;19.946;2023-04-23T17:12:29;11.90;;;8.00;;
65764;SDS011;52915;53.718;19.946;2023-04-23T17:31:28;9.70;;;5.80;;
65764;SDS011;52915;53.718;19.946;2023-04-23T17:50:17;19.50;;;7.20;;
65764;SDS011;52915;53.718;19.946;2023-04-23T17:59:50;6.60;;;5.70;;
65764;SDS011;52915;53.718;19.946;2023-04-23T18:04:55;37.70;;;13.70;;
65764;SDS011;52915;53.718;19.946;2023-04-23T18:10:02;15.80;;;7.00;;
65764;SDS011;52915;53.718;19.946;2023-04-23T18:15:32;13.20;;;6.50;;
65764;SDS011;52915;53.718;19.946;2023-04-23T18:20:36;28.10;;;10.00;;
65764;SDS011;52915;53.718;19.946;2023-04-23T18:32:04;43.20;;;22.30;;
65764;SDS011;52915;53.718;19.946;2023-04-23T18:37:10;25.30;;;11.00;;
65764;SDS011;52915;53.718;19.946;2023-04-23T18:42:34;12.00;;;7.10;;
65764;SDS011;52915;53.718;19.946;2023-04-23T18:54:53;11.00;;;5.70;;
65764;SDS011;52915;53.718;19.946;2023-04-23T18:59:57;12.50;;;5.60;;
65764;SDS011;52915;53.718;19.946;2023-04-23T19:05:09;7.00;;;5.40;;
65764;SDS011;52915;53.718;19.946;2023-04-23T19:10:13;10.40;;;6.10;;
65764;SDS011;52915;53.718;19.946;2023-04-23T19:15:19;8.90;;;5.20;;
65764;SDS011;52915;53.718;19.946;2023-04-23T19:20:23;11.60;;;5.30;;
65764;SDS011;52915;53.718;19.946;2023-04-23T19:25:27;9.60;;;5.20;;
65764;SDS011;52915;53.718;19.946;2023-04-23T19:30:31;10.80;;;7.70;;
65764;SDS011;52915;53.718;19.946;2023-04-23T19:54:39;13.00;;;5.40;;
65764;SDS011;52915;53.718;19.946;2023-04-23T20:00:30;15.50;;;7.80;;
65764;SDS011;52915;53.718;19.946;2023-04-23T20:05:36;34.00;;;20.60;;
65764;SDS011;52915;53.718;19.946;2023-04-23T20:10:41;28.00;;;17.00;;
65764;SDS011;52915;53.718;19.946;2023-04-23T20:15:45;26.80;;;16.30;;
65764;SDS011;52915;53.718;19.946;2023-04-23T20:20:57;22.90;;;14.80;;
65764;SDS011;52915;53.718;19.946;2023-04-23T20:26:01;34.60;;;14.90;;
65764;SDS011;52915;53.718;19.946;2023-04-23T20:31:05;32.60;;;17.90;;
65764;SDS011;52915;53.718;19.946;2023-04-23T20:36:09;25.80;;;15.60;;
65764;SDS011;52915;53.718;19.946;2023-04-23T20:41:29;20.10;;;11.40;;
65764;SDS011;52915;53.718;19.946;2023-04-23T20:53:58;17.20;;;10.40;;
65764;SDS011;52915;53.718;19.946;2023-04-23T20:59:37;47.70;;;26.80;;
65764;SDS011;52915;53.718;19.946;2023-04-23T21:05:05;60.60;;;34.20;;
65764;SDS011;52915;53.718;19.946;2023-04-23T21:15:14;17.40;;;10.50;;
65764;SDS011;52915;53.718;19.946;2023-04-23T21:20:19;16.60;;;10.30;;
65764;SDS011;52915;53.718;19.946;2023-04-23T21:25:23;21.80;;;10.60;;
65764;SDS011;52915;53.718;19.946;2023-04-23T21:30:55;24.70;;;13.10;;
65764;SDS011;52915;53.718;19.946;2023-04-23T21:36:04;25.60;;;10.80;;
65764;SDS011;52915;53.718;19.946;2023-04-23T21:41:08;21.70;;;10.20;;
65764;SDS011;52915;53.718;19.946;2023-04-23T21:46:11;21.40;;;10.90;;
65764;SDS011;52915;53.718;19.946;2023-04-23T21:51:15;21.70;;;10.40;;
65764;SDS011;52915;53.718;19.946;2023-04-23T21:56:20;16.50;;;10.80;;
65764;SDS011;52915;53.718;19.946;2023-04-23T22:01:24;17.60;;;9.10;;
65764;SDS011;52915;53.718;19.946;2023-04-23T22:06:28;17.30;;;8.80;;
65764;SDS011;52915;53.718;19.946;2023-04-23T22:11:32;11.20;;;8.20;;
65764;SDS011;52915;53.718;19.946;2023-04-23T22:16:37;13.60;;;7.90;;
65764;SDS011;52915;53.718;19.946;2023-04-23T22:21:41;18.10;;;9.20;;
65764;SDS011;52915;53.718;19.946;2023-04-23T22:26:46;10.60;;;7.50;;
65764;SDS011;52915;53.718;19.946;2023-04-23T22:31:49;17.00;;;9.80;;
65764;SDS011;52915;53.718;19.946;2023-04-23T22:36:56;9.00;;;7.30;;
65764;SDS011;52915;53.718;19.946;2023-04-23T22:42:00;11.60;;;8.60;;
65764;SDS011;52915;53.718;19.946;2023-04-23T22:47:05;11.00;;;9.00;;
65764;SDS011;52915;53.718;19.946;2023-04-23T22:52:09;13.80;;;9.20;;
65764;SDS011;52915;53.718;19.946;2023-04-23T22:57:18;19.20;;;10.60;;
65764;SDS011;52915;53.718;19.946;2023-04-23T23:09:44;14.50;;;8.50;;
65764;SDS011;52915;53.718;19.946;2023-04-23T23:14:47;15.00;;;10.90;;
65764;SDS011;52915;53.718;19.946;2023-04-23T23:24:20;13.60;;;9.60;;
65764;SDS011;52915;53.718;19.946;2023-04-23T23:29:25;14.70;;;9.10;;
65764;SDS011;52915;53.718;19.946;2023-04-23T23:34:37;17.80;;;9.40;;
65764;SDS011;52915;53.718;19.946;2023-04-23T23:39:41;14.60;;;8.90;;
65764;SDS011;52915;53.718;19.946;2023-04-23T23:44:48;13.20;;;8.90;;
65764;SDS011;52915;53.718;19.946;2023-04-23T23:49:55;17.00;;;8.70;;
65764;SDS011;52915;53.718;19.946;2023-04-23T23:54:59;20.10;;;11.70;;
